sensor_id;sensor_type;location;lat;lon;timestamp;temperature;humidity
20833;DHT22;56075;51.264;7.150;2024-01-30T00:03:49;9.20;99.90
20833;DHT22;56075;51.264;7.150;2024-01-30T00:06:22;9.20;99.90
20833;DHT22;56075;51.264;7.150;2024-01-30T00:08:53;9.10;99.90
20833;DHT22;56075;51.264;7.150;2024-01-30T00:13:59;9.10;99.90
20833;DHT22;56075;51.264;7.150;2024-01-30T00:16:30;9.00;99.90
20833;DHT22;56075;51.264;7.150;2024-01-30T00:19:02;9.10;99.90
20833;DHT22;56075;51.264;7.150;2024-01-30T00:24:05;9.10;99.90
20833;DHT22;56075;51.264;7.150;2024-01-30T00:29:07;8.90;99.90
20833;DHT22;56075;51.264;7.150;2024-01-30T00:31:38;9.10;99.90
20833;DHT22;56075;51.264;7.150;2024-01-30T00:34:10;9.30;99.90
20833;DHT22;56075;51.264;7.150;2024-01-30T00:39:12;9.10;99.90
20833;DHT22;56075;51.264;7.150;2024-01-30T00:41:43;9.30;99.90
20833;DHT22;56075;51.264;7.150;2024-01-30T00:46:46;9.20;99.90
20833;DHT22;56075;51.264;7.150;2024-01-30T00:49:17;9.30;99.90
20833;DHT22;56075;51.264;7.150;2024-01-30T00:51:48;9.20;99.90
20833;DHT22;56075;51.264;7.150;2024-01-30T00:54:19;9.10;99.90
20833;DHT22;56075;51.264;7.150;2024-01-30T00:56:50;9.20;99.90
20833;DHT22;56075;51.264;7.150;2024-01-30T00:59:21;9.10;99.90
20833;DHT22;56075;51.264;7.150;2024-01-30T01:06:55;9.00;99.90
20833;DHT22;56075;51.264;7.150;2024-01-30T01:09:26;8.90;99.90
20833;DHT22;56075;51.264;7.150;2024-01-30T01:14:29;8.70;99.90
20833;DHT22;56075;51.264;7.150;2024-01-30T01:17:00;8.90;99.90
20833;DHT22;56075;51.264;7.150;2024-01-30T01:22:03;8.80;99.90
20833;DHT22;56075;51.264;7.150;2024-01-30T01:24:34;8.80;99.90
20833;DHT22;56075;51.264;7.150;2024-01-30T01:29:37;8.50;99.90
20833;DHT22;56075;51.264;7.150;2024-01-30T01:34:40;8.90;99.90
20833;DHT22;56075;51.264;7.150;2024-01-30T01:37:11;8.80;99.90
20833;DHT22;56075;51.264;7.150;2024-01-30T01:42:13;8.80;99.90
20833;DHT22;56075;51.264;7.150;2024-01-30T01:44:44;8.80;99.90
20833;DHT22;56075;51.264;7.150;2024-01-30T01:47:16;8.50;99.90
20833;DHT22;56075;51.264;7.150;2024-01-30T01:49:47;8.90;99.90
20833;DHT22;56075;51.264;7.150;2024-01-30T01:52:18;8.90;99.90
20833;DHT22;56075;51.264;7.150;2024-01-30T01:54:49;8.90;99.90
20833;DHT22;56075;51.264;7.150;2024-01-30T01:57:20;8.90;99.90
20833;DHT22;56075;51.264;7.150;2024-01-30T02:04:57;8.80;99.90
20833;DHT22;56075;51.264;7.150;2024-01-30T02:10:00;8.70;99.90
20833;DHT22;56075;51.264;7.150;2024-01-30T02:15:03;8.70;99.90
20833;DHT22;56075;51.264;7.150;2024-01-30T02:27:43;8.50;99.90
20833;DHT22;56075;51.264;7.150;2024-01-30T02:35:18;8.50;99.90
20833;DHT22;56075;51.264;7.150;2024-01-30T02:47:54;8.70;99.90
20833;DHT22;56075;51.264;7.150;2024-01-30T02:50:25;8.40;99.90
20833;DHT22;56075;51.264;7.150;2024-01-30T02:57:59;8.70;99.90
20833;DHT22;56075;51.264;7.150;2024-01-30T03:00:30;8.80;99.90
20833;DHT22;56075;51.264;7.150;2024-01-30T03:03:01;8.60;99.90
20833;DHT22;56075;51.264;7.150;2024-01-30T03:08:05;8.80;99.90
20833;DHT22;56075;51.264;7.150;2024-01-30T03:10:36;8.90;99.90
20833;DHT22;56075;51.264;7.150;2024-01-30T03:18:10;9.00;99.90
20833;DHT22;56075;51.264;7.150;2024-01-30T03:20:41;8.90;99.90
20833;DHT22;56075;51.264;7.150;2024-01-30T03:23:12;8.90;99.90
20833;DHT22;56075;51.264;7.150;2024-01-30T03:25:43;8.90;99.90
20833;DHT22;56075;51.264;7.150;2024-01-30T03:28:14;9.00;99.90
20833;DHT22;56075;51.264;7.150;2024-01-30T03:30:45;9.10;99.90
20833;DHT22;56075;51.264;7.150;2024-01-30T03:33:16;9.00;99.90
20833;DHT22;56075;51.264;7.150;2024-01-30T03:40:50;9.00;99.90
20833;DHT22;56075;51.264;7.150;2024-01-30T03:43:21;9.00;99.90
20833;DHT22;56075;51.264;7.150;2024-01-30T03:50:56;9.20;99.90
20833;DHT22;56075;51.264;7.150;2024-01-30T03:53:27;9.20;99.90
20833;DHT22;56075;51.264;7.150;2024-01-30T03:55:58;9.10;99.90
20833;DHT22;56075;51.264;7.150;2024-01-30T04:01:01;9.20;99.90
20833;DHT22;56075;51.264;7.150;2024-01-30T04:03:32;9.30;99.90
20833;DHT22;56075;51.264;7.150;2024-01-30T04:08:35;9.20;99.90
20833;DHT22;56075;51.264;7.150;2024-01-30T04:11:06;9.20;99.90
20833;DHT22;56075;51.264;7.150;2024-01-30T04:16:19;9.20;99.90
20833;DHT22;56075;51.264;7.150;2024-01-30T04:18:51;9.30;99.90
20833;DHT22;56075;51.264;7.150;2024-01-30T04:23:53;9.20;99.90
20833;DHT22;56075;51.264;7.150;2024-01-30T04:26:25;9.30;99.90
20833;DHT22;56075;51.264;7.150;2024-01-30T04:28:56;9.50;99.90
20833;DHT22;56075;51.264;7.150;2024-01-30T04:31:27;9.40;99.90
20833;DHT22;56075;51.264;7.150;2024-01-30T04:33:58;9.40;99.90
20833;DHT22;56075;51.264;7.150;2024-01-30T04:36:29;9.40;99.90
20833;DHT22;56075;51.264;7.150;2024-01-30T04:39:00;9.40;99.90
20833;DHT22;56075;51.264;7.150;2024-01-30T04:41:31;9.50;99.90
20833;DHT22;56075;51.264;7.150;2024-01-30T04:46:34;9.40;99.90
20833;DHT22;56075;51.264;7.150;2024-01-30T04:49:05;9.40;99.90
20833;DHT22;56075;51.264;7.150;2024-01-30T04:51:38;9.40;99.90
20833;DHT22;56075;51.264;7.150;2024-01-30T04:54:09;9.30;99.90
20833;DHT22;56075;51.264;7.150;2024-01-30T04:56:40;9.40;99.90
20833;DHT22;56075;51.264;7.150;2024-01-30T04:59:12;9.40;99.90
20833;DHT22;56075;51.264;7.150;2024-01-30T05:01:43;9.40;99.90
20833;DHT22;56075;51.264;7.150;2024-01-30T05:04:14;9.30;99.90
20833;DHT22;56075;51.264;7.150;2024-01-30T05:06:45;9.50;99.90
20833;DHT22;56075;51.264;7.150;2024-01-30T05:09:17;9.40;99.90
20833;DHT22;56075;51.264;7.150;2024-01-30T05:11:48;9.40;99.90
20833;DHT22;56075;51.264;7.150;2024-01-30T05:14:19;9.50;99.90
20833;DHT22;56075;51.264;7.150;2024-01-30T05:16:50;9.40;99.90
20833;DHT22;56075;51.264;7.150;2024-01-30T05:19:21;9.20;99.90
20833;DHT22;56075;51.264;7.150;2024-01-30T05:21:54;9.10;99.90
20833;DHT22;56075;51.264;7.150;2024-01-30T05:24:25;9.20;99.90
20833;DHT22;56075;51.264;7.150;2024-01-30T05:29:27;9.10;99.90
20833;DHT22;56075;51.264;7.150;2024-01-30T05:31:58;9.20;99.90
20833;DHT22;56075;51.264;7.150;2024-01-30T05:34:31;9.10;99.90
20833;DHT22;56075;51.264;7.150;2024-01-30T05:37:02;9.00;99.90
20833;DHT22;56075;51.264;7.150;2024-01-30T05:42:05;9.20;99.90
20833;DHT22;56075;51.264;7.150;2024-01-30T05:44:36;9.30;99.90
20833;DHT22;56075;51.264;7.150;2024-01-30T05:47:07;9.20;99.90
20833;DHT22;56075;51.264;7.150;2024-01-30T05:52:09;9.20;99.90
20833;DHT22;56075;51.264;7.150;2024-01-30T05:54:41;9.20;99.90
20833;DHT22;56075;51.264;7.150;2024-01-30T05:59:44;9.30;99.90
20833;DHT22;56075;51.264;7.150;2024-01-30T06:02:16;9.10;99.90
20833;DHT22;56075;51.264;7.150;2024-01-30T06:07:18;9.20;99.90
20833;DHT22;56075;51.264;7.150;2024-01-30T06:12:21;9.30;99.90
20833;DHT22;56075;51.264;7.150;2024-01-30T06:14:52;9.20;99.90
20833;DHT22;56075;51.264;7.150;2024-01-30T06:17:25;9.10;99.90
20833;DHT22;56075;51.264;7.150;2024-01-30T06:19:56;9.10;99.90
20833;DHT22;56075;51.264;7.150;2024-01-30T06:22:27;9.30;99.90
20833;DHT22;56075;51.264;7.150;2024-01-30T06:24:58;9.30;99.90
20833;DHT22;56075;51.264;7.150;2024-01-30T06:27:29;9.10;99.90
20833;DHT22;56075;51.264;7.150;2024-01-30T06:30:01;9.10;99.90
20833;DHT22;56075;51.264;7.150;2024-01-30T06:35:08;9.10;99.90
20833;DHT22;56075;51.264;7.150;2024-01-30T06:40:11;9.20;99.90
20833;DHT22;56075;51.264;7.150;2024-01-30T06:45:13;9.30;99.90
20833;DHT22;56075;51.264;7.150;2024-01-30T06:47:45;9.20;99.90
20833;DHT22;56075;51.264;7.150;2024-01-30T06:55:19;9.10;99.90
20833;DHT22;56075;51.264;7.150;2024-01-30T06:57:51;9.30;99.90
20833;DHT22;56075;51.264;7.150;2024-01-30T07:00:22;9.60;99.90
20833;DHT22;56075;51.264;7.150;2024-01-30T07:02:54;9.40;99.90
20833;DHT22;56075;51.264;7.150;2024-01-30T07:05:25;9.50;99.90
20833;DHT22;56075;51.264;7.150;2024-01-30T07:07:56;9.40;99.90
20833;DHT22;56075;51.264;7.150;2024-01-30T07:13:00;9.50;99.90
20833;DHT22;56075;51.264;7.150;2024-01-30T07:15:33;9.60;99.90
20833;DHT22;56075;51.264;7.150;2024-01-30T07:18:05;9.70;99.90
20833;DHT22;56075;51.264;7.150;2024-01-30T07:20:36;9.60;99.90
20833;DHT22;56075;51.264;7.150;2024-01-30T07:23:08;9.60;99.90
20833;DHT22;56075;51.264;7.150;2024-01-30T07:30:47;9.60;99.90
20833;DHT22;56075;51.264;7.150;2024-01-30T07:33:19;9.60;99.90
20833;DHT22;56075;51.264;7.150;2024-01-30T07:35:52;10.40;99.90
20833;DHT22;56075;51.264;7.150;2024-01-30T07:38:23;9.70;99.90
20833;DHT22;56075;51.264;7.150;2024-01-30T07:40:54;9.80;99.90
20833;DHT22;56075;51.264;7.150;2024-01-30T07:43:25;9.70;99.90
20833;DHT22;56075;51.264;7.150;2024-01-30T07:45:57;9.80;99.90
20833;DHT22;56075;51.264;7.150;2024-01-30T07:51:00;9.80;99.90
20833;DHT22;56075;51.264;7.150;2024-01-30T07:53:31;9.80;99.90
20833;DHT22;56075;51.264;7.150;2024-01-30T07:56:02;9.90;99.90
20833;DHT22;56075;51.264;7.150;2024-01-30T07:58:33;9.90;99.90
20833;DHT22;56075;51.264;7.150;2024-01-30T08:06:07;10.00;99.90
20833;DHT22;56075;51.264;7.150;2024-01-30T08:11:10;10.00;99.90
20833;DHT22;56075;51.264;7.150;2024-01-30T08:13:41;10.10;99.90
20833;DHT22;56075;51.264;7.150;2024-01-30T08:16:12;10.10;99.90
20833;DHT22;56075;51.264;7.150;2024-01-30T08:18:43;10.10;99.90
20833;DHT22;56075;51.264;7.150;2024-01-30T08:21:14;10.10;99.90
20833;DHT22;56075;51.264;7.150;2024-01-30T08:23:46;10.20;99.90
20833;DHT22;56075;51.264;7.150;2024-01-30T08:26:17;10.30;99.90
20833;DHT22;56075;51.264;7.150;2024-01-30T08:28:48;10.30;99.90
20833;DHT22;56075;51.264;7.150;2024-01-30T08:31:19;10.30;99.90
20833;DHT22;56075;51.264;7.150;2024-01-30T08:33:50;10.40;99.90
20833;DHT22;56075;51.264;7.150;2024-01-30T08:36:21;10.40;99.90
20833;DHT22;56075;51.264;7.150;2024-01-30T08:38:52;10.20;99.90
20833;DHT22;56075;51.264;7.150;2024-01-30T08:41:23;10.50;99.90
20833;DHT22;56075;51.264;7.150;2024-01-30T08:43:54;10.30;99.90
20833;DHT22;56075;51.264;7.150;2024-01-30T08:46:26;10.40;99.90
20833;DHT22;56075;51.264;7.150;2024-01-30T08:59:03;10.70;99.90
20833;DHT22;56075;51.264;7.150;2024-01-30T09:01:34;10.70;99.90
20833;DHT22;56075;51.264;7.150;2024-01-30T09:04:06;10.70;99.90
20833;DHT22;56075;51.264;7.150;2024-01-30T09:06:37;11.10;99.90
20833;DHT22;56075;51.264;7.150;2024-01-30T09:09:10;10.70;99.90
20833;DHT22;56075;51.264;7.150;2024-01-30T09:11:41;10.90;99.90
20833;DHT22;56075;51.264;7.150;2024-01-30T09:14:12;10.90;99.90
20833;DHT22;56075;51.264;7.150;2024-01-30T09:16:43;11.10;99.90
20833;DHT22;56075;51.264;7.150;2024-01-30T09:19:14;11.10;99.90
20833;DHT22;56075;51.264;7.150;2024-01-30T09:24:17;11.10;99.90
20833;DHT22;56075;51.264;7.150;2024-01-30T09:26:48;10.90;99.90
20833;DHT22;56075;51.264;7.150;2024-01-30T09:29:19;11.00;99.90
20833;DHT22;56075;51.264;7.150;2024-01-30T09:31:51;11.10;99.90
20833;DHT22;56075;51.264;7.150;2024-01-30T09:34:22;11.10;99.90
20833;DHT22;56075;51.264;7.150;2024-01-30T09:36:53;11.10;99.90
20833;DHT22;56075;51.264;7.150;2024-01-30T09:39:24;11.10;99.90
20833;DHT22;56075;51.264;7.150;2024-01-30T09:42:02;11.20;99.90
20833;DHT22;56075;51.264;7.150;2024-01-30T09:44:38;11.30;99.90
20833;DHT22;56075;51.264;7.150;2024-01-30T09:47:09;11.50;99.90
20833;DHT22;56075;51.264;7.150;2024-01-30T09:49:41;11.40;99.90
20833;DHT22;56075;51.264;7.150;2024-01-30T09:52:14;11.40;99.90
20833;DHT22;56075;51.264;7.150;2024-01-30T09:54:47;11.70;99.90
20833;DHT22;56075;51.264;7.150;2024-01-30T09:57:20;11.40;99.90
20833;DHT22;56075;51.264;7.150;2024-01-30T09:59:52;12.00;99.90
20833;DHT22;56075;51.264;7.150;2024-01-30T10:02:24;11.40;99.90
20833;DHT22;56075;51.264;7.150;2024-01-30T10:04:56;11.40;99.90
20833;DHT22;56075;51.264;7.150;2024-01-30T10:15:01;11.60;99.90
20833;DHT22;56075;51.264;7.150;2024-01-30T10:17:32;11.70;99.90
20833;DHT22;56075;51.264;7.150;2024-01-30T10:20:05;11.80;99.90
20833;DHT22;56075;51.264;7.150;2024-01-30T10:22:37;11.60;99.90
20833;DHT22;56075;51.264;7.150;2024-01-30T10:25:09;11.70;99.90
20833;DHT22;56075;51.264;7.150;2024-01-30T10:27:40;11.70;99.90
20833;DHT22;56075;51.264;7.150;2024-01-30T10:30:11;11.70;99.90
20833;DHT22;56075;51.264;7.150;2024-01-30T10:32:42;11.70;99.90
20833;DHT22;56075;51.264;7.150;2024-01-30T10:35:14;11.80;99.90
20833;DHT22;56075;51.264;7.150;2024-01-30T10:37:47;11.90;99.90
20833;DHT22;56075;51.264;7.150;2024-01-30T10:40:21;11.90;99.90
20833;DHT22;56075;51.264;7.150;2024-01-30T10:42:57;12.00;99.90
20833;DHT22;56075;51.264;7.150;2024-01-30T10:48:04;12.10;99.90
20833;DHT22;56075;51.264;7.150;2024-01-30T10:50:36;12.00;99.90
20833;DHT22;56075;51.264;7.150;2024-01-30T10:55:40;12.20;99.90
20833;DHT22;56075;51.264;7.150;2024-01-30T10:58:12;12.30;99.90
20833;DHT22;56075;51.264;7.150;2024-01-30T11:00:45;12.20;99.90
20833;DHT22;56075;51.264;7.150;2024-01-30T11:03:17;12.40;99.90
20833;DHT22;56075;51.264;7.150;2024-01-30T11:05:50;12.30;99.90
20833;DHT22;56075;51.264;7.150;2024-01-30T11:08:25;12.50;99.90
20833;DHT22;56075;51.264;7.150;2024-01-30T11:10:58;12.50;99.90
20833;DHT22;56075;51.264;7.150;2024-01-30T11:13:29;12.70;99.90
20833;DHT22;56075;51.264;7.150;2024-01-30T11:16:05;12.60;99.90
20833;DHT22;56075;51.264;7.150;2024-01-30T11:18:36;12.60;99.90
20833;DHT22;56075;51.264;7.150;2024-01-30T11:21:08;12.70;99.90
20833;DHT22;56075;51.264;7.150;2024-01-30T11:23:39;12.70;99.90
20833;DHT22;56075;51.264;7.150;2024-01-30T11:26:10;12.70;99.90
20833;DHT22;56075;51.264;7.150;2024-01-30T11:28:42;12.60;99.90
20833;DHT22;56075;51.264;7.150;2024-01-30T11:31:18;12.80;99.90
20833;DHT22;56075;51.264;7.150;2024-01-30T11:33:53;12.90;99.90
20833;DHT22;56075;51.264;7.150;2024-01-30T11:36:25;12.80;99.90
20833;DHT22;56075;51.264;7.150;2024-01-30T11:38:57;12.70;99.90
20833;DHT22;56075;51.264;7.150;2024-01-30T11:41:29;12.90;99.90
20833;DHT22;56075;51.264;7.150;2024-01-30T11:44:03;13.00;99.90
20833;DHT22;56075;51.264;7.150;2024-01-30T11:49:06;12.90;99.90
20833;DHT22;56075;51.264;7.150;2024-01-30T11:51:38;13.00;99.90
20833;DHT22;56075;51.264;7.150;2024-01-30T11:54:09;13.00;99.90
20833;DHT22;56075;51.264;7.150;2024-01-30T11:56:40;13.00;99.90
20833;DHT22;56075;51.264;7.150;2024-01-30T11:59:11;13.00;99.90
20833;DHT22;56075;51.264;7.150;2024-01-30T12:01:43;13.00;99.90
20833;DHT22;56075;51.264;7.150;2024-01-30T12:04:15;13.00;99.90
20833;DHT22;56075;51.264;7.150;2024-01-30T12:09:22;13.00;99.90
20833;DHT22;56075;51.264;7.150;2024-01-30T12:11:53;12.90;99.90
20833;DHT22;56075;51.264;7.150;2024-01-30T12:14:24;13.00;99.90
20833;DHT22;56075;51.264;7.150;2024-01-30T12:16:56;12.90;99.90
20833;DHT22;56075;51.264;7.150;2024-01-30T12:21:59;12.80;99.90
20833;DHT22;56075;51.264;7.150;2024-01-30T12:24:30;12.70;99.90
20833;DHT22;56075;51.264;7.150;2024-01-30T12:32:05;12.70;99.90
20833;DHT22;56075;51.264;7.150;2024-01-30T12:34:41;12.70;99.90
20833;DHT22;56075;51.264;7.150;2024-01-30T12:37:12;12.60;99.90
20833;DHT22;56075;51.264;7.150;2024-01-30T12:39:45;12.60;99.90
20833;DHT22;56075;51.264;7.150;2024-01-30T12:42:16;12.60;99.90
20833;DHT22;56075;51.264;7.150;2024-01-30T12:44:47;12.60;99.90
20833;DHT22;56075;51.264;7.150;2024-01-30T12:47:21;12.60;99.90
20833;DHT22;56075;51.264;7.150;2024-01-30T12:49:52;12.40;99.90
20833;DHT22;56075;51.264;7.150;2024-01-30T12:52:24;12.40;99.90
20833;DHT22;56075;51.264;7.150;2024-01-30T12:54:56;12.50;99.90
20833;DHT22;56075;51.264;7.150;2024-01-30T12:57:27;12.30;99.90
20833;DHT22;56075;51.264;7.150;2024-01-30T13:02:30;12.40;99.90
20833;DHT22;56075;51.264;7.150;2024-01-30T13:05:06;12.40;99.90
20833;DHT22;56075;51.264;7.150;2024-01-30T13:07:38;12.30;99.90
20833;DHT22;56075;51.264;7.150;2024-01-30T13:10:09;12.40;99.90
20833;DHT22;56075;51.264;7.150;2024-01-30T13:12:40;12.20;99.90
20833;DHT22;56075;51.264;7.150;2024-01-30T13:15:12;12.20;99.90
20833;DHT22;56075;51.264;7.150;2024-01-30T13:17:43;12.10;99.90
20833;DHT22;56075;51.264;7.150;2024-01-30T13:20:15;12.10;99.90
20833;DHT22;56075;51.264;7.150;2024-01-30T13:22:50;12.20;99.90
20833;DHT22;56075;51.264;7.150;2024-01-30T13:25:21;12.20;99.90
20833;DHT22;56075;51.264;7.150;2024-01-30T13:27:52;12.10;99.90
20833;DHT22;56075;51.264;7.150;2024-01-30T13:30:23;12.00;99.90
20833;DHT22;56075;51.264;7.150;2024-01-30T13:32:55;12.10;99.90
20833;DHT22;56075;51.264;7.150;2024-01-30T13:35:26;12.10;99.90
20833;DHT22;56075;51.264;7.150;2024-01-30T13:40:28;12.30;99.90
20833;DHT22;56075;51.264;7.150;2024-01-30T13:42:59;12.10;99.90
20833;DHT22;56075;51.264;7.150;2024-01-30T13:45:31;12.00;99.90
20833;DHT22;56075;51.264;7.150;2024-01-30T13:48:02;11.90;99.90
20833;DHT22;56075;51.264;7.150;2024-01-30T13:50:34;12.00;99.90
20833;DHT22;56075;51.264;7.150;2024-01-30T13:53:05;12.10;99.90
20833;DHT22;56075;51.264;7.150;2024-01-30T13:55:36;12.00;99.90
20833;DHT22;56075;51.264;7.150;2024-01-30T13:58:07;12.00;99.90
20833;DHT22;56075;51.264;7.150;2024-01-30T14:00:38;12.00;99.90
20833;DHT22;56075;51.264;7.150;2024-01-30T14:03:09;12.00;99.90
20833;DHT22;56075;51.264;7.150;2024-01-30T14:05:40;11.90;99.90
20833;DHT22;56075;51.264;7.150;2024-01-30T14:10:43;12.00;99.90
20833;DHT22;56075;51.264;7.150;2024-01-30T14:13:15;11.80;99.90
20833;DHT22;56075;51.264;7.150;2024-01-30T14:15:46;12.20;99.90
20833;DHT22;56075;51.264;7.150;2024-01-30T14:20:48;11.90;99.90
20833;DHT22;56075;51.264;7.150;2024-01-30T14:23:19;12.00;99.90
20833;DHT22;56075;51.264;7.150;2024-01-30T14:25:51;12.10;99.90
20833;DHT22;56075;51.264;7.150;2024-01-30T14:28:22;12.00;99.90
20833;DHT22;56075;51.264;7.150;2024-01-30T14:30:54;12.00;99.90
20833;DHT22;56075;51.264;7.150;2024-01-30T14:33:25;12.00;99.90
20833;DHT22;56075;51.264;7.150;2024-01-30T14:35:56;12.00;99.90
20833;DHT22;56075;51.264;7.150;2024-01-30T14:38:28;12.00;99.90
20833;DHT22;56075;51.264;7.150;2024-01-30T14:40:59;12.00;99.90
20833;DHT22;56075;51.264;7.150;2024-01-30T14:43:30;12.70;99.90
20833;DHT22;56075;51.264;7.150;2024-01-30T14:46:01;12.00;99.90
20833;DHT22;56075;51.264;7.150;2024-01-30T14:48:33;12.00;99.90
20833;DHT22;56075;51.264;7.150;2024-01-30T14:51:04;11.90;99.90
20833;DHT22;56075;51.264;7.150;2024-01-30T14:53:35;12.10;99.90
20833;DHT22;56075;51.264;7.150;2024-01-30T14:56:06;12.20;99.90
20833;DHT22;56075;51.264;7.150;2024-01-30T15:01:09;12.00;99.90
20833;DHT22;56075;51.264;7.150;2024-01-30T15:03:40;12.00;99.90
20833;DHT22;56075;51.264;7.150;2024-01-30T15:06:13;12.30;99.90
20833;DHT22;56075;51.264;7.150;2024-01-30T15:08:44;12.10;99.90
20833;DHT22;56075;51.264;7.150;2024-01-30T15:11:16;12.40;99.90
20833;DHT22;56075;51.264;7.150;2024-01-30T15:13:47;12.30;99.90
20833;DHT22;56075;51.264;7.150;2024-01-30T15:16:18;12.00;99.90
20833;DHT22;56075;51.264;7.150;2024-01-30T15:18:49;11.90;99.90
20833;DHT22;56075;51.264;7.150;2024-01-30T15:21:20;12.30;99.90
20833;DHT22;56075;51.264;7.150;2024-01-30T15:23:53;12.00;99.90
20833;DHT22;56075;51.264;7.150;2024-01-30T15:26:25;12.00;99.90
20833;DHT22;56075;51.264;7.150;2024-01-30T15:28:56;12.00;99.90
20833;DHT22;56075;51.264;7.150;2024-01-30T15:31:27;12.00;99.90
20833;DHT22;56075;51.264;7.150;2024-01-30T15:33:58;11.80;99.90
20833;DHT22;56075;51.264;7.150;2024-01-30T15:36:29;12.00;99.90
20833;DHT22;56075;51.264;7.150;2024-01-30T15:39:01;11.90;99.90
20833;DHT22;56075;51.264;7.150;2024-01-30T15:41:33;12.00;99.90
20833;DHT22;56075;51.264;7.150;2024-01-30T15:44:04;11.80;99.90
20833;DHT22;56075;51.264;7.150;2024-01-30T15:46:35;11.80;99.90
20833;DHT22;56075;51.264;7.150;2024-01-30T15:49:06;11.80;99.90
20833;DHT22;56075;51.264;7.150;2024-01-30T15:51:38;11.80;99.90
20833;DHT22;56075;51.264;7.150;2024-01-30T15:54:09;11.80;99.90
20833;DHT22;56075;51.264;7.150;2024-01-30T15:56:40;11.70;99.90
20833;DHT22;56075;51.264;7.150;2024-01-30T15:59:11;11.60;99.90
20833;DHT22;56075;51.264;7.150;2024-01-30T16:01:42;11.60;99.90
20833;DHT22;56075;51.264;7.150;2024-01-30T16:04:18;11.70;99.90
20833;DHT22;56075;51.264;7.150;2024-01-30T16:06:50;11.70;99.90
20833;DHT22;56075;51.264;7.150;2024-01-30T16:09:24;11.60;99.90
20833;DHT22;56075;51.264;7.150;2024-01-30T16:11:56;11.50;99.90
20833;DHT22;56075;51.264;7.150;2024-01-30T16:14:27;11.50;99.90
20833;DHT22;56075;51.264;7.150;2024-01-30T16:16:58;11.40;99.90
20833;DHT22;56075;51.264;7.150;2024-01-30T16:19:29;11.50;99.90
20833;DHT22;56075;51.264;7.150;2024-01-30T16:22:00;11.40;99.90
20833;DHT22;56075;51.264;7.150;2024-01-30T16:24:32;11.40;99.90
20833;DHT22;56075;51.264;7.150;2024-01-30T16:27:03;11.30;99.90
20833;DHT22;56075;51.264;7.150;2024-01-30T16:29:34;11.30;99.90
20833;DHT22;56075;51.264;7.150;2024-01-30T16:32:06;11.30;99.90
20833;DHT22;56075;51.264;7.150;2024-01-30T16:34:37;11.30;99.90
20833;DHT22;56075;51.264;7.150;2024-01-30T16:37:09;11.10;99.90
20833;DHT22;56075;51.264;7.150;2024-01-30T16:39:40;11.20;99.90
20833;DHT22;56075;51.264;7.150;2024-01-30T16:42:11;11.10;99.90
20833;DHT22;56075;51.264;7.150;2024-01-30T16:44:43;11.10;99.90
20833;DHT22;56075;51.264;7.150;2024-01-30T16:47:15;11.00;99.90
20833;DHT22;56075;51.264;7.150;2024-01-30T16:49:46;11.00;99.90
20833;DHT22;56075;51.264;7.150;2024-01-30T16:52:17;11.00;99.90
20833;DHT22;56075;51.264;7.150;2024-01-30T16:54:48;10.90;99.90
20833;DHT22;56075;51.264;7.150;2024-01-30T16:57:19;10.90;99.90
20833;DHT22;56075;51.264;7.150;2024-01-30T17:02:22;10.80;99.90
20833;DHT22;56075;51.264;7.150;2024-01-30T17:04:53;10.70;99.90
20833;DHT22;56075;51.264;7.150;2024-01-30T17:07:24;10.80;99.90
20833;DHT22;56075;51.264;7.150;2024-01-30T17:09:55;10.70;99.90
20833;DHT22;56075;51.264;7.150;2024-01-30T17:12:27;10.70;99.90
20833;DHT22;56075;51.264;7.150;2024-01-30T17:14:59;10.60;99.90
20833;DHT22;56075;51.264;7.150;2024-01-30T17:17:30;10.50;99.90
20833;DHT22;56075;51.264;7.150;2024-01-30T17:20:01;10.60;99.90
20833;DHT22;56075;51.264;7.150;2024-01-30T17:22:32;10.60;99.90
20833;DHT22;56075;51.264;7.150;2024-01-30T17:25:04;10.20;99.90
20833;DHT22;56075;51.264;7.150;2024-01-30T17:27:36;10.40;99.90
20833;DHT22;56075;51.264;7.150;2024-01-30T17:30:07;10.40;99.90
20833;DHT22;56075;51.264;7.150;2024-01-30T17:32:38;10.30;99.90
20833;DHT22;56075;51.264;7.150;2024-01-30T17:35:09;10.30;99.90
20833;DHT22;56075;51.264;7.150;2024-01-30T17:40:13;10.20;99.90
20833;DHT22;56075;51.264;7.150;2024-01-30T17:47:47;10.20;99.90
20833;DHT22;56075;51.264;7.150;2024-01-30T17:50:18;10.20;99.90
20833;DHT22;56075;51.264;7.150;2024-01-30T17:55:21;10.20;99.90
20833;DHT22;56075;51.264;7.150;2024-01-30T17:57:53;10.10;99.90
20833;DHT22;56075;51.264;7.150;2024-01-30T18:00:24;10.10;99.90
20833;DHT22;56075;51.264;7.150;2024-01-30T18:02:56;10.20;99.90
20833;DHT22;56075;51.264;7.150;2024-01-30T18:05:27;10.10;99.90
20833;DHT22;56075;51.264;7.150;2024-01-30T18:07:58;9.90;99.90
20833;DHT22;56075;51.264;7.150;2024-01-30T18:13:01;10.20;99.90
20833;DHT22;56075;51.264;7.150;2024-01-30T18:18:06;10.00;99.90
20833;DHT22;56075;51.264;7.150;2024-01-30T18:20:37;10.20;99.90
20833;DHT22;56075;51.264;7.150;2024-01-30T18:23:08;10.10;99.90
20833;DHT22;56075;51.264;7.150;2024-01-30T18:25:39;10.30;99.90
20833;DHT22;56075;51.264;7.150;2024-01-30T18:28:11;10.20;99.90
20833;DHT22;56075;51.264;7.150;2024-01-30T18:30:42;10.10;99.90
20833;DHT22;56075;51.264;7.150;2024-01-30T18:33:13;10.10;99.90
20833;DHT22;56075;51.264;7.150;2024-01-30T18:35:45;10.10;99.90
20833;DHT22;56075;51.264;7.150;2024-01-30T18:40:48;9.90;99.90
20833;DHT22;56075;51.264;7.150;2024-01-30T18:45:52;9.80;99.90
20833;DHT22;56075;51.264;7.150;2024-01-30T18:48:24;9.50;99.90
20833;DHT22;56075;51.264;7.150;2024-01-30T18:50:55;9.70;99.90
20833;DHT22;56075;51.264;7.150;2024-01-30T18:55:58;9.50;99.90
20833;DHT22;56075;51.264;7.150;2024-01-30T18:58:29;9.80;99.90
20833;DHT22;56075;51.264;7.150;2024-01-30T19:01:01;9.50;99.90
20833;DHT22;56075;51.264;7.150;2024-01-30T19:03:33;9.60;99.90
20833;DHT22;56075;51.264;7.150;2024-01-30T19:08:36;9.60;99.90
20833;DHT22;56075;51.264;7.150;2024-01-30T19:11:16;9.60;99.90
20833;DHT22;56075;51.264;7.150;2024-01-30T19:16:19;9.70;99.90
20833;DHT22;56075;51.264;7.150;2024-01-30T19:21:22;9.50;99.90
20833;DHT22;56075;51.264;7.150;2024-01-30T19:23:53;9.40;99.90
20833;DHT22;56075;51.264;7.150;2024-01-30T19:26:26;9.10;99.90
20833;DHT22;56075;51.264;7.150;2024-01-30T19:31:29;9.40;99.90
20833;DHT22;56075;51.264;7.150;2024-01-30T19:34:00;9.30;99.90
20833;DHT22;56075;51.264;7.150;2024-01-30T19:36:33;9.30;99.90
20833;DHT22;56075;51.264;7.150;2024-01-30T19:39:07;9.20;99.90
20833;DHT22;56075;51.264;7.150;2024-01-30T19:41:44;9.40;99.90
20833;DHT22;56075;51.264;7.150;2024-01-30T19:44:15;9.20;99.90
20833;DHT22;56075;51.264;7.150;2024-01-30T19:46:46;9.30;99.90
20833;DHT22;56075;51.264;7.150;2024-01-30T19:49:18;9.10;99.90
20833;DHT22;56075;51.264;7.150;2024-01-30T19:51:49;9.10;99.90
20833;DHT22;56075;51.264;7.150;2024-01-30T19:54:20;9.10;99.90
20833;DHT22;56075;51.264;7.150;2024-01-30T19:56:58;9.20;99.90
20833;DHT22;56075;51.264;7.150;2024-01-30T19:59:31;8.80;99.90